sensor_id;sensor_type;location;lat;lon;timestamp;P1;durP1;ratioP1;P2;durP2;ratioP2
86203;SDS011;76856;42.356;24.732;2024-03-02T00:00:08;53.13;;;26.52;;
86203;SDS011;76856;42.356;24.732;2024-03-02T00:02:41;67.53;;;27.33;;
86203;SDS011;76856;42.356;24.732;2024-03-02T00:05:06;61.13;;;27.65;;
86203;SDS011;76856;42.356;24.732;2024-03-02T00:07:32;55.67;;;26.35;;
86203;SDS011;76856;42.356;24.732;2024-03-02T00:09:58;60.15;;;24.63;;
86203;SDS011;76856;42.356;24.732;2024-03-02T00:12:24;49.72;;;23.73;;
86203;SDS011;76856;42.356;24.732;2024-03-02T00:14:51;57.97;;;26.77;;
86203;SDS011;76856;42.356;24.732;2024-03-02T00:17:25;63.85;;;31.30;;
86203;SDS011;76856;42.356;24.732;2024-03-02T00:19:51;59.25;;;29.48;;
86203;SDS011;76856;42.356;24.732;2024-03-02T00:22:17;53.95;;;25.73;;
86203;SDS011;76856;42.356;24.732;2024-03-02T00:24:43;52.13;;;24.23;;
86203;SDS011;76856;42.356;24.732;2024-03-02T00:27:09;62.90;;;25.00;;
86203;SDS011;76856;42.356;24.732;2024-03-02T00:29:40;47.53;;;21.60;;
86203;SDS011;76856;42.356;24.732;2024-03-02T00:32:11;54.63;;;23.60;;
86203;SDS011;76856;42.356;24.732;2024-03-02T00:34:38;53.13;;;21.20;;
86203;SDS011;76856;42.356;24.732;2024-03-02T00:37:04;51.97;;;22.73;;
86203;SDS011;76856;42.356;24.732;2024-03-02T00:39:30;54.10;;;20.77;;
86203;SDS011;76856;42.356;24.732;2024-03-02T00:41:56;51.25;;;22.23;;
86203;SDS011;76856;42.356;24.732;2024-03-02T00:44:22;57.22;;;23.70;;
86203;SDS011;76856;42.356;24.732;2024-03-02T00:46:51;63.17;;;23.77;;
86203;SDS011;76856;42.356;24.732;2024-03-02T00:49:22;50.70;;;21.83;;
86203;SDS011;76856;42.356;24.732;2024-03-02T00:51:49;59.30;;;22.77;;
86203;SDS011;76856;42.356;24.732;2024-03-02T00:54:20;54.30;;;20.85;;
86203;SDS011;76856;42.356;24.732;2024-03-02T00:56:49;44.05;;;20.50;;
86203;SDS011;76856;42.356;24.732;2024-03-02T00:59:15;51.50;;;23.65;;
86203;SDS011;76856;42.356;24.732;2024-03-02T01:01:41;46.47;;;22.42;;
86203;SDS011;76856;42.356;24.732;2024-03-02T01:04:08;54.08;;;21.50;;
86203;SDS011;76856;42.356;24.732;2024-03-02T01:06:34;52.08;;;23.05;;
86203;SDS011;76856;42.356;24.732;2024-03-02T01:09:00;43.53;;;19.52;;
86203;SDS011;76856;42.356;24.732;2024-03-02T01:11:26;51.53;;;22.08;;
86203;SDS011;76856;42.356;24.732;2024-03-02T01:13:51;41.08;;;21.85;;
86203;SDS011;76856;42.356;24.732;2024-03-02T01:16:17;53.58;;;23.17;;
86203;SDS011;76856;42.356;24.732;2024-03-02T01:18:43;50.63;;;19.33;;
86203;SDS011;76856;42.356;24.732;2024-03-02T01:21:09;54.65;;;23.17;;
86203;SDS011;76856;42.356;24.732;2024-03-02T01:23:34;48.40;;;21.67;;
86203;SDS011;76856;42.356;24.732;2024-03-02T01:26:00;63.33;;;21.58;;
86203;SDS011;76856;42.356;24.732;2024-03-02T01:28:25;55.10;;;21.27;;
86203;SDS011;76856;42.356;24.732;2024-03-02T01:30:51;55.28;;;23.60;;
86203;SDS011;76856;42.356;24.732;2024-03-02T01:33:17;55.25;;;24.35;;
86203;SDS011;76856;42.356;24.732;2024-03-02T01:35:43;56.03;;;25.48;;
86203;SDS011;76856;42.356;24.732;2024-03-02T01:38:09;71.05;;;24.08;;
86203;SDS011;76856;42.356;24.732;2024-03-02T01:40:35;55.33;;;24.20;;
86203;SDS011;76856;42.356;24.732;2024-03-02T01:43:01;69.75;;;25.40;;
86203;SDS011;76856;42.356;24.732;2024-03-02T01:45:28;60.40;;;26.73;;
86203;SDS011;76856;42.356;24.732;2024-03-02T01:47:53;58.88;;;27.10;;
86203;SDS011;76856;42.356;24.732;2024-03-02T01:50:29;57.00;;;26.20;;
86203;SDS011;76856;42.356;24.732;2024-03-02T01:52:57;76.25;;;30.13;;
86203;SDS011;76856;42.356;24.732;2024-03-02T01:55:23;58.40;;;28.75;;
86203;SDS011;76856;42.356;24.732;2024-03-02T01:57:49;78.15;;;32.10;;
86203;SDS011;76856;42.356;24.732;2024-03-02T02:00:21;64.72;;;29.58;;
86203;SDS011;76856;42.356;24.732;2024-03-02T02:02:50;78.53;;;32.63;;
86203;SDS011;76856;42.356;24.732;2024-03-02T02:05:17;70.05;;;29.77;;
86203;SDS011;76856;42.356;24.732;2024-03-02T02:07:43;66.25;;;27.95;;
86203;SDS011;76856;42.356;24.732;2024-03-02T02:10:09;69.35;;;26.63;;
86203;SDS011;76856;42.356;24.732;2024-03-02T02:12:35;63.58;;;26.60;;
86203;SDS011;76856;42.356;24.732;2024-03-02T02:15:02;73.38;;;28.38;;
86203;SDS011;76856;42.356;24.732;2024-03-02T02:17:28;72.30;;;28.25;;
86203;SDS011;76856;42.356;24.732;2024-03-02T02:19:53;74.43;;;25.33;;
86203;SDS011;76856;42.356;24.732;2024-03-02T02:22:19;78.78;;;26.80;;
86203;SDS011;76856;42.356;24.732;2024-03-02T02:24:44;87.30;;;29.33;;
86203;SDS011;76856;42.356;24.732;2024-03-02T02:27:10;72.68;;;26.02;;
86203;SDS011;76856;42.356;24.732;2024-03-02T02:29:39;83.30;;;27.48;;
86203;SDS011;76856;42.356;24.732;2024-03-02T02:32:05;74.47;;;27.80;;
86203;SDS011;76856;42.356;24.732;2024-03-02T02:34:31;80.72;;;27.50;;
86203;SDS011;76856;42.356;24.732;2024-03-02T02:36:57;71.03;;;28.75;;
86203;SDS011;76856;42.356;24.732;2024-03-02T02:39:23;81.75;;;30.90;;
86203;SDS011;76856;42.356;24.732;2024-03-02T02:41:48;90.97;;;31.50;;
86203;SDS011;76856;42.356;24.732;2024-03-02T02:44:14;76.38;;;29.75;;
86203;SDS011;76856;42.356;24.732;2024-03-02T02:46:40;106.55;;;36.42;;
86203;SDS011;76856;42.356;24.732;2024-03-02T02:49:06;81.82;;;29.15;;
86203;SDS011;76856;42.356;24.732;2024-03-02T02:51:32;83.95;;;28.17;;
86203;SDS011;76856;42.356;24.732;2024-03-02T02:53:58;76.45;;;29.98;;
86203;SDS011;76856;42.356;24.732;2024-03-02T02:56:23;93.00;;;31.40;;
86203;SDS011;76856;42.356;24.732;2024-03-02T02:58:49;92.50;;;32.33;;
86203;SDS011;76856;42.356;24.732;2024-03-02T03:01:15;85.55;;;29.70;;
86203;SDS011;76856;42.356;24.732;2024-03-02T03:03:44;81.45;;;29.67;;
86203;SDS011;76856;42.356;24.732;2024-03-02T03:06:10;81.22;;;31.33;;
86203;SDS011;76856;42.356;24.732;2024-03-02T03:08:36;87.25;;;31.58;;
86203;SDS011;76856;42.356;24.732;2024-03-02T03:11:02;86.68;;;30.17;;
86203;SDS011;76856;42.356;24.732;2024-03-02T03:13:29;69.15;;;30.40;;
86203;SDS011;76856;42.356;24.732;2024-03-02T03:15:54;96.93;;;32.53;;
86203;SDS011;76856;42.356;24.732;2024-03-02T03:18:20;93.40;;;29.90;;
86203;SDS011;76856;42.356;24.732;2024-03-02T03:20:46;67.10;;;27.55;;
86203;SDS011;76856;42.356;24.732;2024-03-02T03:23:12;88.22;;;31.45;;
86203;SDS011;76856;42.356;24.732;2024-03-02T03:25:40;75.55;;;29.23;;
86203;SDS011;76856;42.356;24.732;2024-03-02T03:28:07;81.43;;;29.08;;
86203;SDS011;76856;42.356;24.732;2024-03-02T03:30:36;77.07;;;30.88;;
86203;SDS011;76856;42.356;24.732;2024-03-02T03:33:03;91.43;;;31.05;;
86203;SDS011;76856;42.356;24.732;2024-03-02T03:35:29;75.25;;;27.83;;
86203;SDS011;76856;42.356;24.732;2024-03-02T03:37:55;75.57;;;31.00;;
86203;SDS011;76856;42.356;24.732;2024-03-02T03:40:20;77.72;;;31.38;;
86203;SDS011;76856;42.356;24.732;2024-03-02T03:42:46;74.25;;;32.05;;
86203;SDS011;76856;42.356;24.732;2024-03-02T03:45:11;74.75;;;30.33;;
86203;SDS011;76856;42.356;24.732;2024-03-02T03:47:37;71.07;;;26.88;;
86203;SDS011;76856;42.356;24.732;2024-03-02T03:50:03;69.95;;;28.40;;
86203;SDS011;76856;42.356;24.732;2024-03-02T03:52:32;66.22;;;28.52;;
86203;SDS011;76856;42.356;24.732;2024-03-02T03:54:57;71.82;;;27.60;;
86203;SDS011;76856;42.356;24.732;2024-03-02T03:57:23;71.93;;;29.17;;
86203;SDS011;76856;42.356;24.732;2024-03-02T03:59:49;75.63;;;28.38;;
86203;SDS011;76856;42.356;24.732;2024-03-02T04:02:14;74.43;;;26.90;;
86203;SDS011;76856;42.356;24.732;2024-03-02T04:04:40;72.93;;;28.10;;
86203;SDS011;76856;42.356;24.732;2024-03-02T04:07:05;75.28;;;28.90;;
86203;SDS011;76856;42.356;24.732;2024-03-02T04:09:31;64.85;;;26.50;;
86203;SDS011;76856;42.356;24.732;2024-03-02T04:11:56;66.80;;;27.02;;
86203;SDS011;76856;42.356;24.732;2024-03-02T04:14:22;82.65;;;25.95;;
86203;SDS011;76856;42.356;24.732;2024-03-02T04:16:47;56.13;;;23.75;;
86203;SDS011;76856;42.356;24.732;2024-03-02T04:19:13;64.55;;;27.20;;
86203;SDS011;76856;42.356;24.732;2024-03-02T04:21:39;68.40;;;26.13;;
86203;SDS011;76856;42.356;24.732;2024-03-02T04:24:04;56.70;;;24.20;;
86203;SDS011;76856;42.356;24.732;2024-03-02T04:26:30;57.65;;;24.65;;
86203;SDS011;76856;42.356;24.732;2024-03-02T04:28:56;52.03;;;23.63;;
86203;SDS011;76856;42.356;24.732;2024-03-02T04:31:21;58.70;;;23.40;;
86203;SDS011;76856;42.356;24.732;2024-03-02T04:33:47;58.72;;;23.20;;
86203;SDS011;76856;42.356;24.732;2024-03-02T04:36:12;55.72;;;23.70;;
86203;SDS011;76856;42.356;24.732;2024-03-02T04:38:38;50.38;;;23.90;;
86203;SDS011;76856;42.356;24.732;2024-03-02T04:41:04;70.18;;;28.67;;
86203;SDS011;76856;42.356;24.732;2024-03-02T04:43:33;58.55;;;27.15;;
86203;SDS011;76856;42.356;24.732;2024-03-02T04:46:00;58.20;;;24.42;;
86203;SDS011;76856;42.356;24.732;2024-03-02T04:48:25;54.95;;;23.90;;
86203;SDS011;76856;42.356;24.732;2024-03-02T04:50:51;54.63;;;25.67;;
86203;SDS011;76856;42.356;24.732;2024-03-02T04:53:17;56.08;;;25.48;;
86203;SDS011;76856;42.356;24.732;2024-03-02T04:55:42;69.45;;;25.13;;
86203;SDS011;76856;42.356;24.732;2024-03-02T04:58:08;74.28;;;23.60;;
86203;SDS011;76856;42.356;24.732;2024-03-02T05:00:34;54.17;;;22.90;;
86203;SDS011;76856;42.356;24.732;2024-03-02T05:03:00;43.13;;;23.23;;
86203;SDS011;76856;42.356;24.732;2024-03-02T05:05:26;50.65;;;24.33;;
86203;SDS011;76856;42.356;24.732;2024-03-02T05:07:52;52.72;;;25.60;;
86203;SDS011;76856;42.356;24.732;2024-03-02T05:10:17;61.97;;;26.10;;
86203;SDS011;76856;42.356;24.732;2024-03-02T05:12:43;56.17;;;25.83;;
86203;SDS011;76856;42.356;24.732;2024-03-02T05:15:12;73.78;;;32.10;;
86203;SDS011;76856;42.356;24.732;2024-03-02T05:17:39;78.95;;;32.40;;
86203;SDS011;76856;42.356;24.732;2024-03-02T05:20:06;65.45;;;29.67;;
86203;SDS011;76856;42.356;24.732;2024-03-02T05:22:35;75.90;;;29.80;;
86203;SDS011;76856;42.356;24.732;2024-03-02T05:25:02;67.38;;;27.02;;
86203;SDS011;76856;42.356;24.732;2024-03-02T05:27:28;58.42;;;29.30;;
86203;SDS011;76856;42.356;24.732;2024-03-02T05:29:54;58.17;;;27.42;;
86203;SDS011;76856;42.356;24.732;2024-03-02T05:32:20;73.55;;;28.35;;
86203;SDS011;76856;42.356;24.732;2024-03-02T05:34:45;78.03;;;31.95;;
86203;SDS011;76856;42.356;24.732;2024-03-02T05:37:11;72.43;;;31.02;;
86203;SDS011;76856;42.356;24.732;2024-03-02T05:39:37;61.00;;;26.02;;
86203;SDS011;76856;42.356;24.732;2024-03-02T05:42:02;63.70;;;24.95;;
86203;SDS011;76856;42.356;24.732;2024-03-02T05:44:28;67.05;;;24.83;;
86203;SDS011;76856;42.356;24.732;2024-03-02T05:46:54;52.53;;;23.90;;
86203;SDS011;76856;42.356;24.732;2024-03-02T05:49:20;59.95;;;22.80;;
86203;SDS011;76856;42.356;24.732;2024-03-02T05:51:46;53.35;;;22.67;;
86203;SDS011;76856;42.356;24.732;2024-03-02T05:54:11;58.60;;;25.35;;
86203;SDS011;76856;42.356;24.732;2024-03-02T05:56:37;54.17;;;27.55;;
86203;SDS011;76856;42.356;24.732;2024-03-02T05:59:03;56.20;;;25.63;;
86203;SDS011;76856;42.356;24.732;2024-03-02T06:01:47;64.20;;;29.67;;
86203;SDS011;76856;42.356;24.732;2024-03-02T06:04:15;57.35;;;26.33;;
86203;SDS011;76856;42.356;24.732;2024-03-02T06:06:41;67.53;;;27.70;;
86203;SDS011;76856;42.356;24.732;2024-03-02T06:09:07;62.90;;;28.25;;
86203;SDS011;76856;42.356;24.732;2024-03-02T06:11:33;54.95;;;26.20;;
86203;SDS011;76856;42.356;24.732;2024-03-02T06:13:59;57.83;;;26.98;;
86203;SDS011;76856;42.356;24.732;2024-03-02T06:16:25;53.60;;;25.63;;
86203;SDS011;76856;42.356;24.732;2024-03-02T06:18:50;51.58;;;23.80;;
86203;SDS011;76856;42.356;24.732;2024-03-02T06:21:16;63.72;;;26.00;;
86203;SDS011;76856;42.356;24.732;2024-03-02T06:23:43;53.40;;;26.50;;
86203;SDS011;76856;42.356;24.732;2024-03-02T06:26:09;56.38;;;26.67;;
86203;SDS011;76856;42.356;24.732;2024-03-02T06:28:34;54.38;;;23.45;;
86203;SDS011;76856;42.356;24.732;2024-03-02T06:31:01;52.85;;;26.02;;
86203;SDS011;76856;42.356;24.732;2024-03-02T06:33:27;56.75;;;24.98;;
86203;SDS011;76856;42.356;24.732;2024-03-02T06:35:53;52.85;;;25.17;;
86203;SDS011;76856;42.356;24.732;2024-03-02T06:38:19;56.25;;;24.98;;
86203;SDS011;76856;42.356;24.732;2024-03-02T06:40:45;54.85;;;26.35;;
86203;SDS011;76856;42.356;24.732;2024-03-02T06:43:10;58.05;;;25.13;;
86203;SDS011;76856;42.356;24.732;2024-03-02T06:45:36;61.47;;;29.10;;
86203;SDS011;76856;42.356;24.732;2024-03-02T06:48:02;52.40;;;24.80;;
86203;SDS011;76856;42.356;24.732;2024-03-02T06:50:30;54.47;;;24.10;;
86203;SDS011;76856;42.356;24.732;2024-03-02T06:52:56;55.83;;;23.13;;
86203;SDS011;76856;42.356;24.732;2024-03-02T06:55:22;43.20;;;22.52;;
86203;SDS011;76856;42.356;24.732;2024-03-02T06:57:49;47.88;;;20.80;;
86203;SDS011;76856;42.356;24.732;2024-03-02T07:00:16;60.20;;;25.33;;
86203;SDS011;76856;42.356;24.732;2024-03-02T07:02:43;72.80;;;30.30;;
86203;SDS011;76856;42.356;24.732;2024-03-02T07:05:10;74.40;;;30.75;;
86203;SDS011;76856;42.356;24.732;2024-03-02T07:07:36;60.17;;;29.52;;
86203;SDS011;76856;42.356;24.732;2024-03-02T07:10:05;64.90;;;26.75;;
86203;SDS011;76856;42.356;24.732;2024-03-02T07:12:32;52.20;;;25.95;;
86203;SDS011;76856;42.356;24.732;2024-03-02T07:14:58;53.33;;;23.83;;
86203;SDS011;76856;42.356;24.732;2024-03-02T07:17:30;61.58;;;28.73;;
86203;SDS011;76856;42.356;24.732;2024-03-02T07:19:56;102.13;;;47.90;;
86203;SDS011;76856;42.356;24.732;2024-03-02T07:22:23;104.55;;;46.30;;
86203;SDS011;76856;42.356;24.732;2024-03-02T07:24:49;69.22;;;28.95;;
86203;SDS011;76856;42.356;24.732;2024-03-02T07:27:15;49.53;;;25.35;;
86203;SDS011;76856;42.356;24.732;2024-03-02T07:29:41;62.85;;;29.55;;
86203;SDS011;76856;42.356;24.732;2024-03-02T07:32:08;62.22;;;27.20;;
86203;SDS011;76856;42.356;24.732;2024-03-02T07:34:34;63.75;;;24.88;;
86203;SDS011;76856;42.356;24.732;2024-03-02T07:37:00;51.40;;;22.10;;
86203;SDS011;76856;42.356;24.732;2024-03-02T07:39:26;38.00;;;18.67;;
86203;SDS011;76856;42.356;24.732;2024-03-02T07:41:52;42.63;;;21.48;;
86203;SDS011;76856;42.356;24.732;2024-03-02T07:44:18;50.47;;;22.88;;
86203;SDS011;76856;42.356;24.732;2024-03-02T07:46:48;47.75;;;23.30;;
86203;SDS011;76856;42.356;24.732;2024-03-02T07:49:16;48.90;;;23.92;;
86203;SDS011;76856;42.356;24.732;2024-03-02T07:51:42;40.15;;;20.33;;
86203;SDS011;76856;42.356;24.732;2024-03-02T07:54:08;49.67;;;21.63;;
86203;SDS011;76856;42.356;24.732;2024-03-02T07:56:34;40.70;;;18.98;;
86203;SDS011;76856;42.356;24.732;2024-03-02T07:59:01;46.78;;;19.58;;
86203;SDS011;76856;42.356;24.732;2024-03-02T08:01:27;40.55;;;18.75;;
86203;SDS011;76856;42.356;24.732;2024-03-02T08:03:55;35.95;;;18.60;;
86203;SDS011;76856;42.356;24.732;2024-03-02T08:06:26;36.67;;;19.55;;
86203;SDS011;76856;42.356;24.732;2024-03-02T08:08:57;37.88;;;19.60;;
86203;SDS011;76856;42.356;24.732;2024-03-02T08:11:24;36.80;;;18.35;;
86203;SDS011;76856;42.356;24.732;2024-03-02T08:13:49;39.20;;;16.40;;
86203;SDS011;76856;42.356;24.732;2024-03-02T08:16:17;31.02;;;16.33;;
86203;SDS011;76856;42.356;24.732;2024-03-02T08:18:45;27.48;;;13.23;;
86203;SDS011;76856;42.356;24.732;2024-03-02T08:21:14;33.17;;;16.38;;
86203;SDS011;76856;42.356;24.732;2024-03-02T08:23:40;31.17;;;15.15;;
86203;SDS011;76856;42.356;24.732;2024-03-02T08:26:08;37.45;;;14.75;;
86203;SDS011;76856;42.356;24.732;2024-03-02T08:28:34;30.67;;;14.70;;
86203;SDS011;76856;42.356;24.732;2024-03-02T08:31:00;30.20;;;15.40;;
86203;SDS011;76856;42.356;24.732;2024-03-02T08:33:26;36.97;;;14.82;;
86203;SDS011;76856;42.356;24.732;2024-03-02T08:35:51;37.15;;;15.95;;
86203;SDS011;76856;42.356;24.732;2024-03-02T08:38:17;31.52;;;16.00;;
86203;SDS011;76856;42.356;24.732;2024-03-02T08:40:43;37.80;;;16.17;;
86203;SDS011;76856;42.356;24.732;2024-03-02T08:43:09;34.60;;;16.15;;
86203;SDS011;76856;42.356;24.732;2024-03-02T08:45:35;29.83;;;15.43;;
86203;SDS011;76856;42.356;24.732;2024-03-02T08:48:01;30.30;;;16.73;;
86203;SDS011;76856;42.356;24.732;2024-03-02T08:50:26;29.73;;;14.73;;
86203;SDS011;76856;42.356;24.732;2024-03-02T08:52:52;38.95;;;15.07;;
86203;SDS011;76856;42.356;24.732;2024-03-02T08:55:17;35.08;;;16.20;;
86203;SDS011;76856;42.356;24.732;2024-03-02T08:57:43;42.10;;;15.55;;
86203;SDS011;76856;42.356;24.732;2024-03-02T09:00:09;36.58;;;16.63;;
86203;SDS011;76856;42.356;24.732;2024-03-02T09:02:35;35.05;;;16.67;;
86203;SDS011;76856;42.356;24.732;2024-03-02T09:05:01;38.38;;;15.95;;
86203;SDS011;76856;42.356;24.732;2024-03-02T09:07:27;39.33;;;16.90;;
86203;SDS011;76856;42.356;24.732;2024-03-02T09:09:52;38.35;;;16.58;;
86203;SDS011;76856;42.356;24.732;2024-03-02T09:12:18;42.13;;;16.55;;
86203;SDS011;76856;42.356;24.732;2024-03-02T09:14:44;29.80;;;17.08;;
86203;SDS011;76856;42.356;24.732;2024-03-02T09:17:11;33.97;;;14.75;;
86203;SDS011;76856;42.356;24.732;2024-03-02T09:19:37;32.00;;;15.00;;
86203;SDS011;76856;42.356;24.732;2024-03-02T09:22:03;28.35;;;14.82;;
86203;SDS011;76856;42.356;24.732;2024-03-02T09:24:31;41.65;;;16.00;;
86203;SDS011;76856;42.356;24.732;2024-03-02T09:26:56;33.85;;;15.45;;
86203;SDS011;76856;42.356;24.732;2024-03-02T09:29:22;37.05;;;19.55;;
86203;SDS011;76856;42.356;24.732;2024-03-02T09:31:47;28.67;;;15.85;;
86203;SDS011;76856;42.356;24.732;2024-03-02T09:34:14;26.60;;;14.68;;
86203;SDS011;76856;42.356;24.732;2024-03-02T09:36:40;34.33;;;13.23;;
86203;SDS011;76856;42.356;24.732;2024-03-02T09:39:09;35.17;;;15.68;;
86203;SDS011;76856;42.356;24.732;2024-03-02T09:41:38;34.17;;;15.00;;
86203;SDS011;76856;42.356;24.732;2024-03-02T09:44:04;28.95;;;12.20;;
86203;SDS011;76856;42.356;24.732;2024-03-02T09:46:31;35.58;;;12.77;;
86203;SDS011;76856;42.356;24.732;2024-03-02T09:48:58;28.33;;;15.48;;
86203;SDS011;76856;42.356;24.732;2024-03-02T09:51:24;32.42;;;17.48;;
86203;SDS011;76856;42.356;24.732;2024-03-02T09:53:50;27.95;;;15.98;;
86203;SDS011;76856;42.356;24.732;2024-03-02T09:56:15;24.13;;;12.57;;
86203;SDS011;76856;42.356;24.732;2024-03-02T09:58:41;29.17;;;14.40;;
86203;SDS011;76856;42.356;24.732;2024-03-02T10:01:07;26.80;;;13.02;;
86203;SDS011;76856;42.356;24.732;2024-03-02T10:03:36;25.65;;;12.13;;
86203;SDS011;76856;42.356;24.732;2024-03-02T10:06:18;26.65;;;13.45;;
86203;SDS011;76856;42.356;24.732;2024-03-02T10:08:44;20.30;;;11.05;;
86203;SDS011;76856;42.356;24.732;2024-03-02T10:11:09;28.50;;;13.60;;
86203;SDS011;76856;42.356;24.732;2024-03-02T10:13:36;33.22;;;14.60;;
86203;SDS011;76856;42.356;24.732;2024-03-02T10:16:11;28.05;;;14.35;;
86203;SDS011;76856;42.356;24.732;2024-03-02T10:18:37;21.52;;;13.43;;
86203;SDS011;76856;42.356;24.732;2024-03-02T10:21:13;23.80;;;12.85;;
86203;SDS011;76856;42.356;24.732;2024-03-02T10:23:39;27.00;;;13.40;;
86203;SDS011;76856;42.356;24.732;2024-03-02T10:26:16;30.25;;;15.13;;
86203;SDS011;76856;42.356;24.732;2024-03-02T10:28:46;35.92;;;16.73;;
86203;SDS011;76856;42.356;24.732;2024-03-02T10:31:24;33.78;;;15.05;;
86203;SDS011;76856;42.356;24.732;2024-03-02T10:33:55;39.40;;;17.42;;
86203;SDS011;76856;42.356;24.732;2024-03-02T10:36:23;34.25;;;16.13;;
86203;SDS011;76856;42.356;24.732;2024-03-02T10:38:49;35.72;;;18.08;;
86203;SDS011;76856;42.356;24.732;2024-03-02T10:41:18;35.40;;;15.88;;
86203;SDS011;76856;42.356;24.732;2024-03-02T10:43:44;40.55;;;19.13;;
86203;SDS011;76856;42.356;24.732;2024-03-02T10:46:11;31.75;;;16.92;;
86203;SDS011;76856;42.356;24.732;2024-03-02T10:48:39;36.75;;;18.42;;
86203;SDS011;76856;42.356;24.732;2024-03-02T10:51:06;44.47;;;20.33;;
86203;SDS011;76856;42.356;24.732;2024-03-02T10:53:32;36.42;;;16.38;;
86203;SDS011;76856;42.356;24.732;2024-03-02T10:55:58;34.30;;;16.60;;
86203;SDS011;76856;42.356;24.732;2024-03-02T10:58:29;43.08;;;16.15;;
86203;SDS011;76856;42.356;24.732;2024-03-02T11:01:00;29.08;;;15.35;;
86203;SDS011;76856;42.356;24.732;2024-03-02T11:03:28;44.58;;;18.42;;
86203;SDS011;76856;42.356;24.732;2024-03-02T11:05:56;38.50;;;18.70;;
86203;SDS011;76856;42.356;24.732;2024-03-02T11:08:24;44.75;;;19.15;;
86203;SDS011;76856;42.356;24.732;2024-03-02T11:11:00;45.80;;;18.85;;
86203;SDS011;76856;42.356;24.732;2024-03-02T11:13:32;40.88;;;18.58;;
86203;SDS011;76856;42.356;24.732;2024-03-02T11:16:12;42.17;;;18.85;;
86203;SDS011;76856;42.356;24.732;2024-03-02T11:18:48;42.67;;;19.02;;
86203;SDS011;76856;42.356;24.732;2024-03-02T11:21:15;37.35;;;16.75;;
86203;SDS011;76856;42.356;24.732;2024-03-02T11:23:42;36.42;;;18.50;;
86203;SDS011;76856;42.356;24.732;2024-03-02T11:26:17;38.17;;;18.83;;
86203;SDS011;76856;42.356;24.732;2024-03-02T11:28:44;30.55;;;15.57;;
86203;SDS011;76856;42.356;24.732;2024-03-02T11:31:10;43.47;;;17.55;;
86203;SDS011;76856;42.356;24.732;2024-03-02T11:33:36;34.97;;;18.02;;
86203;SDS011;76856;42.356;24.732;2024-03-02T11:36:01;36.08;;;17.75;;
86203;SDS011;76856;42.356;24.732;2024-03-02T11:38:28;34.55;;;15.77;;
86203;SDS011;76856;42.356;24.732;2024-03-02T11:40:54;40.45;;;18.77;;
86203;SDS011;76856;42.356;24.732;2024-03-02T11:43:20;35.17;;;16.58;;
86203;SDS011;76856;42.356;24.732;2024-03-02T11:45:46;35.58;;;16.02;;
86203;SDS011;76856;42.356;24.732;2024-03-02T11:48:13;31.23;;;15.70;;
86203;SDS011;76856;42.356;24.732;2024-03-02T11:50:46;36.65;;;16.85;;
86203;SDS011;76856;42.356;24.732;2024-03-02T11:53:14;31.95;;;15.55;;
86203;SDS011;76856;42.356;24.732;2024-03-02T11:55:40;38.78;;;19.35;;
86203;SDS011;76856;42.356;24.732;2024-03-02T11:58:07;36.30;;;18.02;;
86203;SDS011;76856;42.356;24.732;2024-03-02T12:00:33;30.63;;;17.50;;
86203;SDS011;76856;42.356;24.732;2024-03-02T12:03:08;33.47;;;17.98;;
86203;SDS011;76856;42.356;24.732;2024-03-02T12:05:37;38.80;;;17.15;;
86203;SDS011;76856;42.356;24.732;2024-03-02T12:08:03;41.28;;;18.65;;
86203;SDS011;76856;42.356;24.732;2024-03-02T12:10:31;28.60;;;16.50;;
86203;SDS011;76856;42.356;24.732;2024-03-02T12:12:58;36.22;;;17.80;;
86203;SDS011;76856;42.356;24.732;2024-03-02T12:15:29;38.22;;;18.33;;
86203;SDS011;76856;42.356;24.732;2024-03-02T12:17:56;31.98;;;16.83;;
86203;SDS011;76856;42.356;24.732;2024-03-02T12:20:23;32.78;;;16.38;;
86203;SDS011;76856;42.356;24.732;2024-03-02T12:22:53;33.08;;;16.63;;
86203;SDS011;76856;42.356;24.732;2024-03-02T12:25:23;34.20;;;17.40;;
86203;SDS011;76856;42.356;24.732;2024-03-02T12:27:56;34.97;;;18.80;;
86203;SDS011;76856;42.356;24.732;2024-03-02T12:30:23;41.53;;;17.10;;
86203;SDS011;76856;42.356;24.732;2024-03-02T12:32:50;39.03;;;19.20;;
86203;SDS011;76856;42.356;24.732;2024-03-02T12:35:17;49.58;;;25.20;;
86203;SDS011;76856;42.356;24.732;2024-03-02T12:40:16;40.00;;;20.50;;
86203;SDS011;76856;42.356;24.732;2024-03-02T12:42:44;29.17;;;17.33;;
86203;SDS011;76856;42.356;24.732;2024-03-02T12:45:10;35.78;;;17.05;;
86203;SDS011;76856;42.356;24.732;2024-03-02T12:47:37;34.50;;;16.92;;
86203;SDS011;76856;42.356;24.732;2024-03-02T12:50:04;34.95;;;17.45;;
86203;SDS011;76856;42.356;24.732;2024-03-02T12:52:30;26.95;;;16.50;;
86203;SDS011;76856;42.356;24.732;2024-03-02T12:54:58;28.52;;;16.63;;
86203;SDS011;76856;42.356;24.732;2024-03-02T12:57:25;51.95;;;24.45;;
86203;SDS011;76856;42.356;24.732;2024-03-02T12:59:54;36.53;;;20.08;;
86203;SDS011;76856;42.356;24.732;2024-03-02T13:02:34;35.50;;;18.40;;
86203;SDS011;76856;42.356;24.732;2024-03-02T13:05:01;35.95;;;16.42;;
86203;SDS011;76856;42.356;24.732;2024-03-02T13:07:27;33.05;;;18.92;;
86203;SDS011;76856;42.356;24.732;2024-03-02T13:09:54;38.92;;;18.27;;
86203;SDS011;76856;42.356;24.732;2024-03-02T13:12:21;34.20;;;17.00;;
86203;SDS011;76856;42.356;24.732;2024-03-02T13:14:53;37.40;;;18.25;;
86203;SDS011;76856;42.356;24.732;2024-03-02T13:17:19;35.40;;;16.70;;
86203;SDS011;76856;42.356;24.732;2024-03-02T13:19:55;36.50;;;19.73;;
86203;SDS011;76856;42.356;24.732;2024-03-02T13:22:22;40.95;;;17.77;;
86203;SDS011;76856;42.356;24.732;2024-03-02T13:24:52;32.92;;;17.60;;
86203;SDS011;76856;42.356;24.732;2024-03-02T13:27:22;31.48;;;17.75;;
86203;SDS011;76856;42.356;24.732;2024-03-02T13:29:47;29.52;;;17.27;;
86203;SDS011;76856;42.356;24.732;2024-03-02T13:32:14;33.28;;;16.50;;
86203;SDS011;76856;42.356;24.732;2024-03-02T13:34:42;35.92;;;15.95;;
86203;SDS011;76856;42.356;24.732;2024-03-02T13:37:08;35.47;;;16.08;;
86203;SDS011;76856;42.356;24.732;2024-03-02T13:39:34;30.30;;;16.90;;
86203;SDS011;76856;42.356;24.732;2024-03-02T13:42:09;30.20;;;18.33;;
86203;SDS011;76856;42.356;24.732;2024-03-02T13:44:35;21.23;;;12.82;;
86203;SDS011;76856;42.356;24.732;2024-03-02T13:47:02;19.70;;;12.02;;
86203;SDS011;76856;42.356;24.732;2024-03-02T13:49:28;26.48;;;13.00;;
86203;SDS011;76856;42.356;24.732;2024-03-02T13:52:07;23.77;;;13.93;;
86203;SDS011;76856;42.356;24.732;2024-03-02T13:54:38;19.42;;;12.32;;
86203;SDS011;76856;42.356;24.732;2024-03-02T13:57:08;21.10;;;13.32;;
86203;SDS011;76856;42.356;24.732;2024-03-02T13:59:35;26.08;;;14.60;;
86203;SDS011;76856;42.356;24.732;2024-03-02T14:02:01;23.40;;;16.05;;
86203;SDS011;76856;42.356;24.732;2024-03-02T14:04:30;22.48;;;13.70;;
86203;SDS011;76856;42.356;24.732;2024-03-02T14:06:57;25.52;;;12.88;;
86203;SDS011;76856;42.356;24.732;2024-03-02T14:09:22;25.40;;;13.90;;